Java Center, New York
Current Conditions -  °F | °C
As of 4:54 AM on Thursday 27 Nov 2014 (Local Time) from KBUF Reporting Station
Light Snow Light Snow  
Wind Chill: 29°   Ceiling: 3600
Heat Index: 29°   Visibility: 9mi
Dew Point: 22°   Wind: 0mph
Humidity: 75%   Direction: NA
Pressure: 30.03"   Gusts: NA
Location:  42.65°N, 78.39°W
Report Text: KBUF 270954Z 00000KT 9SM -SN OVC036 M02/M06 A3003 RMK AO2 SLP178 P0000 T10171056
Loading
Personal Weather Stations






























Interactive Weather Map New forecast layout! Learn more

10-Day Weather Forecast

Advertisements
Track Severe Weather on mobile